Time;durP1;ratioP1;P1;durP2;ratioP2;P2;SDS_P1;SDS_P2;PMS_P1;PMS_P2;Temp;Humidity;BMP_temperature;BMP_pressure;BME280_temperature;BME280_humidity;BME280_pressure;Samples;Min_cycle;Max_cycle;Signal;HPM_P1;HPM_P2
2023/06/03 00:02:37;;;;;;;;;;;;;;;12.06;100.00;102195.16;10279527;28;20242;-79
2023/06/03 00:07:38;;;;;;;;;;;;;;;12.02;100.00;102199.25;10295779;28;19918;-79
2023/06/03 00:12:38;;;;;;;;;;;;;;;12.00;100.00;102198.59;10279395;28;19937;-80
2023/06/03 00:17:39;;;;;;;;;;;;;;;11.96;100.00;102197.22;10278502;28;20334;-80
2023/06/03 00:22:40;;;;;;;;;;;;;;;11.85;100.00;102191.16;10278062;28;19918;-79
2023/06/03 00:27:41;;;;;;;;;;;;;;;11.81;100.00;102186.22;10277723;28;19918;-79
2023/06/03 00:32:41;;;;;;;;;;;;;;;11.78;100.00;102195.56;10277730;28;19918;-79
2023/06/03 00:37:42;;;;;;;;;;;;;;;11.76;100.00;102194.88;10277649;28;19957;-79
2023/06/03 00:42:42;;;;;;;;;;;;;;;11.75;100.00;102190.47;10277990;28;19921;-79
2023/06/03 00:47:43;;;;;;;;;;;;;;;11.69;100.00;102185.75;10278439;28;20016;-79
2023/06/03 00:52:43;;;;;;;;;;;;;;;11.62;100.00;102185.59;10277082;28;20013;-79
2023/06/03 00:57:44;;;;;;;;;;;;;;;11.64;100.00;102183.53;10276343;28;19929;-80
2023/06/03 01:02:44;;;;;;;;;;;;;;;11.60;100.00;102182.19;10276712;28;19914;-79
2023/06/03 01:07:48;;;;;;;;;;;;;;;11.57;100.00;102187.13;10276575;28;19930;-79
2023/06/03 01:13:07;;;;;;;;;;;;;;;11.52;100.00;102187.66;10276965;28;20361;-79
2023/06/03 01:18:07;;;;;;;;;;;;;;;11.50;100.00;102191.56;10276750;28;20308;-79
2023/06/03 01:23:19;;;;;;;;;;;;;;;11.50;100.00;102188.84;10276866;28;20060;-79
2023/06/03 01:28:20;;;;;;;;;;;;;;;11.46;100.00;102190.22;10275656;28;19918;-79
2023/06/03 01:33:20;;;;;;;;;;;;;;;11.43;100.00;102193.28;10292281;28;19921;-79
2023/06/03 01:38:21;;;;;;;;;;;;;;;11.38;100.00;102194.59;10275956;28;19918;-79
2023/06/03 01:43:22;;;;;;;;;;;;;;;11.37;100.00;102197.50;10274872;28;20008;-79
2023/06/03 01:48:22;;;;;;;;;;;;;;;11.39;100.00;102198.16;10308628;28;19918;-79
2023/06/03 01:53:23;;;;;;;;;;;;;;;11.30;100.00;102208.19;10292139;28;19918;-79
2023/06/03 01:58:24;;;;;;;;;;;;;;;11.32;100.00;102199.88;10292787;28;19933;-79
2023/06/03 02:03:24;;;;;;;;;;;;;;;11.27;100.00;102194.97;10291419;28;19918;-79
2023/06/03 02:08:24;;;;;;;;;;;;;;;11.23;100.00;102204.47;10275410;28;19922;-79
2023/06/03 02:13:25;;;;;;;;;;;;;;;11.19;100.00;102189.53;10291186;28;20044;-79
2023/06/03 02:18:26;;;;;;;;;;;;;;;11.16;100.00;102188.00;10275053;28;19953;-79
2023/06/03 02:23:26;;;;;;;;;;;;;;;11.12;100.00;102189.38;10274931;28;19929;-79
2023/06/03 02:28:29;;;;;;;;;;;;;;;11.11;100.00;102178.72;10291480;28;19918;-79
2023/06/03 02:33:29;;;;;;;;;;;;;;;11.07;100.00;102185.47;10275713;28;20314;-73
2023/06/03 02:38:29;;;;;;;;;;;;;;;11.04;100.00;102177.66;10293098;28;19913;-73
2023/06/03 02:43:30;;;;;;;;;;;;;;;10.99;100.00;102174.63;10275550;28;19918;-73
2023/06/03 02:48:30;;;;;;;;;;;;;;;10.94;100.00;102181.44;10290930;28;19949;-73
2023/06/03 02:53:31;;;;;;;;;;;;;;;10.92;100.00;102188.03;10294950;28;19918;-73
2023/06/03 02:58:31;;;;;;;;;;;;;;;10.87;100.00;102182.25;10291483;28;19918;-72
2023/06/03 03:03:35;;;;;;;;;;;;;;;10.89;100.00;102189.19;10299708;28;20261;-73
2023/06/03 03:08:36;;;;;;;;;;;;;;;10.90;100.00;102181.91;10298951;28;19945;-73
2023/06/03 03:13:36;;;;;;;;;;;;;;;10.87;100.00;102188.50;10299128;28;20008;-73
2023/06/03 03:18:36;;;;;;;;;;;;;;;10.87;100.00;102182.25;10313631;28;20001;-74
2023/06/03 03:23:37;;;;;;;;;;;;;;;10.79;100.00;102184.97;10282539;28;19922;-73
2023/06/03 03:28:37;;;;;;;;;;;;;;;10.79;100.00;102183.09;10303696;28;19914;-73
2023/06/03 03:33:37;;;;;;;;;;;;;;;10.75;100.00;102191.72;10284584;28;20013;-73
2023/06/03 03:38:37;;;;;;;;;;;;;;;10.74;100.00;102188.16;10297150;28;19994;-73
2023/06/03 03:43:38;;;;;;;;;;;;;;;10.72;100.00;102192.91;10279671;28;19976;-73
2023/06/03 03:48:38;;;;;;;;;;;;;;;10.70;100.00;102197.66;10297279;28;19933;-74
2023/06/03 03:53:41;;;;;;;;;;;;;;;10.74;100.00;102201.72;10296024;28;19941;-73
2023/06/03 03:58:42;;;;;;;;;;;;;;;10.72;100.00;102195.63;10303382;28;19961;-73
2023/06/03 04:03:43;;;;;;;;;;;;;;;10.71;100.00;102196.63;10306138;28;19918;-73
2023/06/03 04:08:45;;;;;;;;;;;;;;;10.75;100.00;102197.97;10286000;28;19968;-73
2023/06/03 04:13:45;;;;;;;;;;;;;;;10.80;100.00;102197.50;10300051;28;20384;-73
2023/06/03 04:18:45;;;;;;;;;;;;;;;10.86;100.00;102200.38;10279190;28;19971;-73
2023/06/03 04:23:46;;;;;;;;;;;;;;;10.91;100.00;102206.16;10278500;28;19922;-73
2023/06/03 04:28:46;;;;;;;;;;;;;;;10.96;100.00;102207.50;10304045;28;19977;-73
2023/06/03 04:33:46;;;;;;;;;;;;;;;11.03;100.00;102200.38;10300237;28;19918;-73
2023/06/03 04:38:47;;;;;;;;;;;;;;;11.10;100.00;102204.09;10299328;28;20001;-73
2023/06/03 04:43:47;;;;;;;;;;;;;;;11.61;100.00;102200.19;10278496;28;20353;-73
2023/06/03 04:48:48;;;;;;;;;;;;;;;12.62;100.00;102201.34;10294884;28;19918;-73
2023/06/03 04:53:48;;;;;;;;;;;;;;;13.30;100.00;102193.38;10295247;28;20287;-73
2023/06/03 04:58:48;;;;;;;;;;;;;;;13.90;100.00;102192.41;10294345;28;19918;-72
2023/06/03 05:03:49;;;;;;;;;;;;;;;14.22;100.00;102204.78;10309563;28;20005;-73
2023/06/03 05:08:50;;;;;;;;;;;;;;;14.52;100.00;102197.47;10276718;28;19923;-73
2023/06/03 05:13:51;;;;;;;;;;;;;;;15.05;100.00;102208.91;10294031;28;20033;-73
2023/06/03 05:18:51;;;;;;;;;;;;;;;15.41;100.00;102220.75;10296711;28;20009;-73
2023/06/03 05:23:51;;;;;;;;;;;;;;;15.61;100.00;102220.94;10296663;28;19921;-74
2023/06/03 05:28:51;;;;;;;;;;;;;;;15.91;100.00;102224.31;10293991;28;19966;-73
2023/06/03 05:33:51;;;;;;;;;;;;;;;16.39;100.00;102227.94;10293725;28;20423;-73
2023/06/03 05:38:52;;;;;;;;;;;;;;;16.79;100.00;102227.28;10294587;28;20281;-73
2023/06/03 05:43:52;;;;;;;;;;;;;;;17.14;100.00;102236.19;10293960;28;20269;-73
2023/06/03 05:48:52;;;;;;;;;;;;;;;17.54;100.00;102226.06;10308091;28;19918;-73
2023/06/03 05:53:53;;;;;;;;;;;;;;;17.67;100.00;102231.53;10291991;28;20226;-72
2023/06/03 05:58:53;;;;;;;;;;;;;;;18.18;99.61;102232.72;10307490;28;19925;-73
2023/06/03 06:03:53;;;;;;;;;;;;;;;18.57;89.88;102230.91;10274437;28;19914;-73
2023/06/03 06:08:53;;;;;;;;;;;;;;;18.77;86.71;102239.06;10292492;28;19977;-73
2023/06/03 06:13:54;;;;;;;;;;;;;;;19.09;78.88;102228.94;10291548;28;19918;-73
2023/06/03 06:18:54;;;;;;;;;;;;;;;19.04;76.51;102240.56;10293303;28;19930;-73
2023/06/03 06:23:54;;;;;;;;;;;;;;;19.44;71.31;102236.72;10293178;28;19933;-73
2023/06/03 06:28:54;;;;;;;;;;;;;;;19.96;73.86;102240.88;10278609;28;19972;-73
2023/06/03 06:33:55;;;;;;;;;;;;;;;20.08;64.68;102229.97;10281866;28;19921;-73
2023/06/03 06:38:56;;;;;;;;;;;;;;;20.25;66.14;102224.69;10299523;28;19942;-73
2023/06/03 06:43:56;;;;;;;;;;;;;;;20.59;60.77;102231.50;10302529;28;19960;-73
2023/06/03 06:48:57;;;;;;;;;;;;;;;20.85;57.51;102223.94;10304924;28;20007;-73
2023/06/03 06:53:58;;;;;;;;;;;;;;;21.01;61.43;102226.03;10300581;28;19961;-73
2023/06/03 06:58:58;;;;;;;;;;;;;;;21.64;57.67;102232.06;10298442;28;19914;-73
2023/06/03 07:03:58;;;;;;;;;;;;;;;21.71;58.08;102218.97;10297456;28;20300;-75
2023/06/03 07:08:58;;;;;;;;;;;;;;;22.00;57.54;102228.19;10298546;28;19918;-73
2023/06/03 07:13:59;;;;;;;;;;;;;;;22.94;59.84;102231.56;10297852;28;20274;-73
2023/06/03 07:18:59;;;;;;;;;;;;;;;23.35;56.33;102232.25;10280540;28;19921;-74
2023/06/03 07:24:00;;;;;;;;;;;;;;;23.30;55.31;102226.66;10296878;28;19969;-73
2023/06/03 07:29:00;;;;;;;;;;;;;;;23.40;55.75;102220.47;10295812;28;19960;-73
2023/06/03 07:34:00;;;;;;;;;;;;;;;23.76;51.68;102227.41;10295658;28;19925;-74
2023/06/03 07:39:02;;;;;;;;;;;;;;;24.23;49.51;102226.97;10278934;28;19922;-72
2023/06/03 07:44:07;;;;;;;;;;;;;;;24.53;50.05;102232.06;10279998;28;19921;-72
2023/06/03 07:49:09;;;;;;;;;;;;;;;25.29;52.93;102220.09;10295421;28;19914;-72
2023/06/03 07:54:09;;;;;;;;;;;;;;;25.29;49.46;102220.94;10279058;28;19924;-72
2023/06/03 07:59:09;;;;;;;;;;;;;;;25.01;46.22;102229.50;10297064;28;19914;-72
2023/06/03 08:04:16;;;;;;;;;;;;;;;25.17;42.59;102238.84;10281826;28;19913;-73
2023/06/03 08:09:22;;;;;;;;;;;;;;;25.39;44.25;102235.97;10296758;28;20278;-73
2023/06/03 08:14:23;;;;;;;;;;;;;;;25.93;40.19;102233.91;10278808;28;20060;-72
2023/06/03 08:19:23;;;;;;;;;;;;;;;25.48;42.41;102237.16;10294740;28;19972;-72
2023/06/03 08:24:24;;;;;;;;;;;;;;;26.51;45.29;102233.91;10295180;28;20393;-72
2023/06/03 08:29:24;;;;;;;;;;;;;;;26.64;39.64;102232.56;10295056;28;19922;-73
2023/06/03 08:34:25;;;;;;;;;;;;;;;26.99;42.92;102228.19;10295965;28;19944;-72
2023/06/03 08:39:25;;;;;;;;;;;;;;;27.45;41.40;102225.47;10294799;28;19940;-73
2023/06/03 08:44:35;;;;;;;;;;;;;;;27.28;40.94;102215.47;10277429;28;19924;-72
2023/06/03 08:49:56;;;;;;;;;;;;;;;26.73;36.85;102210.63;10276585;28;19914;-72
2023/06/03 08:54:58;;;;;;;;;;;;;;;27.13;39.45;102215.41;10281541;28;19914;-73
2023/06/03 08:59:58;;;;;;;;;;;;;;;27.95;39.20;102219.00;10277517;28;19922;-72
2023/06/03 09:04:58;;;;;;;;;;;;;;;28.08;34.35;102211.13;10275598;28;19933;-73
2023/06/03 09:09:59;;;;;;;;;;;;;;;27.46;31.95;102205.69;10293323;28;19914;-68
2023/06/03 09:14:59;;;;;;;;;;;;;;;27.00;29.99;102200.13;10307997;28;19964;-68
2023/06/03 09:20:02;;;;;;;;;;;;;;;26.48;30.64;102206.69;10275636;28;19914;-71
2023/06/03 09:25:02;;;;;;;;;;;;;;;26.35;30.14;102212.72;10292596;28;19922;-76
2023/06/03 09:30:03;;;;;;;;;;;;;;;26.12;29.18;102206.50;10292439;28;20016;-68
2023/06/03 09:35:04;;;;;;;;;;;;;;;25.61;30.19;102222.84;10291776;28;19925;-72
2023/06/03 09:40:09;;;;;;;;;;;;;;;25.08;30.34;102207.13;10274955;28;19925;-73
2023/06/03 09:45:21;;;;;;;;;;;;;;;25.55;30.43;102206.44;10274772;28;19920;-72
2023/06/03 09:50:21;;;;;;;;;;;;;;;25.44;29.60;102202.75;10292604;28;19914;-73
2023/06/03 09:55:28;;;;;;;;;;;;;;;25.93;33.54;102208.91;10306913;28;20028;-72
2023/06/03 10:00:33;;;;;;;;;;;;;;;26.23;29.31;102189.88;10275466;28;20362;-73
2023/06/03 10:05:33;;;;;;;;;;;;;;;26.27;28.09;102205.75;10290355;28;20373;-74
2023/06/03 10:10:34;;;;;;;;;;;;;;;26.36;29.47;102192.19;10292200;28;19918;-72
2023/06/03 10:15:38;;;;;;;;;;;;;;;26.44;31.77;102195.25;10291754;28;19941;-72
2023/06/03 10:20:39;;;;;;;;;;;;;;;26.48;31.15;102198.34;10292435;28;19949;-72
2023/06/03 10:25:43;;;;;;;;;;;;;;;26.00;27.06;102194.78;10291862;28;19922;-71
2023/06/03 10:30:44;;;;;;;;;;;;;;;26.19;31.21;102190.44;10292933;28;19925;-72
2023/06/03 10:35:44;;;;;;;;;;;;;;;26.81;29.99;102190.66;10276091;28;20028;-73
2023/06/03 10:40:44;;;;;;;;;;;;;;;26.65;28.71;102196.19;10274866;28;19918;-73
2023/06/03 10:45:44;;;;;;;;;;;;;;;26.27;28.16;102207.69;10292092;28;19922;-75
2023/06/03 10:50:47;;;;;;;;;;;;;;;27.26;30.95;102198.22;10292064;28;19924;-74
2023/06/03 10:56:07;;;;;;;;;;;;;;;27.45;27.10;102189.31;10274880;28;19977;-73
2023/06/03 11:01:07;;;;;;;;;;;;;;;27.09;28.99;102192.91;10275371;28;19920;-73
2023/06/03 11:06:30;;;;;;;;;;;;;;;27.32;30.11;102190.69;10291033;28;20013;-74
2023/06/03 11:11:52;;;;;;;;;;;;;;;27.50;31.96;102198.44;10290004;28;19922;-72
2023/06/03 11:16:58;;;;;;;;;;;;;;;27.71;28.42;102184.50;10297132;28;19914;-74
2023/06/03 11:21:59;;;;;;;;;;;;;;;27.46;27.59;102202.91;10297611;28;20000;-74
2023/06/03 11:26:59;;;;;;;;;;;;;;;27.55;31.79;102195.66;10296152;28;20289;-74
2023/06/03 11:32:23;;;;;;;;;;;;;;;28.32;27.53;102189.88;10278988;28;19973;-74
2023/06/03 11:37:24;;;;;;;;;;;;;;;28.04;28.11;102202.53;10287617;28;19918;-75
2023/06/03 11:42:24;;;;;;;;;;;;;;;28.13;30.96;102188.84;10279608;28;19918;-76
2023/06/03 11:47:25;;;;;;;;;;;;;;;27.57;26.44;102199.03;10297486;28;20369;-76
2023/06/03 11:52:25;;;;;;;;;;;;;;;27.16;29.04;102186.25;10279882;28;19962;-74
2023/06/03 11:57:27;;;;;;;;;;;;;;;28.16;26.97;102179.94;10296093;28;19918;-72
2023/06/03 12:02:27;;;;;;;;;;;;;;;27.90;26.28;102181.97;10278458;28;19953;-72
2023/06/03 12:07:27;;;;;;;;;;;;;;;27.03;25.91;102193.19;10278795;28;20266;-71
2023/06/03 12:12:28;;;;;;;;;;;;;;;26.60;27.97;102182.25;10294219;28;19917;-72
2023/06/03 12:17:28;;;;;;;;;;;;;;;27.83;30.36;102179.50;10295394;28;20061;-72
2023/06/03 12:22:29;;;;;;;;;;;;;;;27.76;26.67;102181.69;10295904;28;19925;-72
2023/06/03 12:27:29;;;;;;;;;;;;;;;28.52;28.13;102180.59;10295502;28;19922;-72
2023/06/03 12:32:31;;;;;;;;;;;;;;;26.71;26.71;102176.72;10277951;28;19914;-75
2023/06/03 12:37:33;;;;;;;;;;;;;;;26.81;28.55;102173.97;10279003;28;20385;-75
2023/06/03 12:42:35;;;;;;;;;;;;;;;26.42;28.84;102166.09;10280550;28;19914;-74
2023/06/03 12:47:45;;;;;;;;;;;;;;;26.70;28.50;102166.72;10295350;28;19914;-75
2023/06/03 12:52:46;;;;;;;;;;;;;;;27.69;28.69;102158.91;10295636;28;19980;-75
2023/06/03 12:57:48;;;;;;;;;;;;;;;26.77;28.66;102168.13;10280338;28;20072;-75
2023/06/03 13:02:49;;;;;;;;;;;;;;;27.61;29.20;102154.75;10280169;28;19924;-75
2023/06/03 13:07:49;;;;;;;;;;;;;;;27.33;28.86;102170.94;10298872;28;19918;-75
2023/06/03 13:12:49;;;;;;;;;;;;;;;27.12;28.05;102155.34;10299827;28;19918;-75
2023/06/03 13:17:50;;;;;;;;;;;;;;;27.47;28.58;102165.66;10281169;28;20310;-75
2023/06/03 13:22:50;;;;;;;;;;;;;;;26.93;29.69;102157.88;10312873;28;19918;-73
2023/06/03 13:27:50;;;;;;;;;;;;;;;27.02;27.69;102147.84;10280493;28;19933;-74
2023/06/03 13:32:50;;;;;;;;;;;;;;;27.38;26.73;102135.88;10277437;28;19913;-74
2023/06/03 13:37:51;;;;;;;;;;;;;;;26.51;26.31;102136.69;10292593;28;20020;-73
2023/06/03 13:42:51;;;;;;;;;;;;;;;26.37;27.38;102141.06;10292507;28;20318;-73
2023/06/03 13:47:51;;;;;;;;;;;;;;;26.83;28.44;102146.72;10292038;28;20288;-73
2023/06/03 13:52:51;;;;;;;;;;;;;;;27.09;29.26;102131.72;10292149;28;19933;-73
2023/06/03 13:57:52;;;;;;;;;;;;;;;27.39;27.07;102138.38;10274664;28;19922;-71
2023/06/03 14:02:52;;;;;;;;;;;;;;;26.74;26.13;102128.94;10274375;28;19926;-71
2023/06/03 14:07:52;;;;;;;;;;;;;;;26.64;26.11;102126.97;10292905;28;19914;-72
2023/06/03 14:12:52;;;;;;;;;;;;;;;26.83;26.90;102130.03;10274040;28;20093;-73
2023/06/03 14:17:53;;;;;;;;;;;;;;;26.52;27.86;102118.94;10291371;28;20284;-72
2023/06/03 14:22:53;;;;;;;;;;;;;;;26.53;26.85;102111.41;10290982;28;20397;-73
2023/06/03 14:27:53;;;;;;;;;;;;;;;26.49;26.05;102107.53;10306144;28;19940;-73
2023/06/03 14:32:53;;;;;;;;;;;;;;;26.11;25.89;102115.19;10273499;28;20301;-72
2023/06/03 14:37:55;;;;;;;;;;;;;;;25.94;27.22;102110.69;10290975;28;19922;-72
2023/06/03 14:42:56;;;;;;;;;;;;;;;25.94;26.44;102112.59;10288912;28;20292;-73
2023/06/03 14:47:56;;;;;;;;;;;;;;;26.01;28.22;102115.16;10274210;28;19921;-73
2023/06/03 14:52:56;;;;;;;;;;;;;;;25.47;27.49;102111.53;10280951;28;19918;-73
2023/06/03 14:57:57;;;;;;;;;;;;;;;25.55;26.63;102098.25;10169050;28;22423;-72
2023/06/03 15:02:57;;;;;;;;;;;;;;;24.95;27.50;102098.41;10299176;28;20289;-72
2023/06/03 15:07:57;;;;;;;;;;;;;;;24.40;26.39;102088.44;10298143;28;20230;-72
2023/06/03 15:12:57;;;;;;;;;;;;;;;24.40;28.64;102098.69;10298725;28;20252;-72
2023/06/03 15:17:58;;;;;;;;;;;;;;;24.55;28.76;102083.09;10297837;28;20233;-72
2023/06/03 15:22:58;;;;;;;;;;;;;;;24.74;27.46;102091.00;10298255;28;19936;-72
2023/06/03 15:27:58;;;;;;;;;;;;;;;24.67;26.70;102087.63;10297257;28;19964;-72
2023/06/03 15:32:58;;;;;;;;;;;;;;;24.37;26.74;102087.03;10281739;28;19956;-72
2023/06/03 15:37:59;;;;;;;;;;;;;;;23.90;26.72;102084.03;10297030;28;19922;-72
2023/06/03 15:42:59;;;;;;;;;;;;;;;23.68;28.38;102081.25;10297350;28;19914;-72
2023/06/03 15:47:59;;;;;;;;;;;;;;;23.91;28.33;102082.94;10280289;28;19949;-71
2023/06/03 15:52:59;;;;;;;;;;;;;;;23.83;28.80;102086.97;10296538;28;20334;-72
2023/06/03 15:58:00;;;;;;;;;;;;;;;23.35;28.59;102076.63;10294135;28;20246;-72
2023/06/03 16:03:00;;;;;;;;;;;;;;;23.38;28.45;102068.66;10294869;28;20273;-72
2023/06/03 16:08:00;;;;;;;;;;;;;;;23.23;28.71;102074.00;10296126;28;19914;-73
2023/06/03 16:13:00;;;;;;;;;;;;;;;23.22;30.12;102064.00;10296857;28;19910;-72
2023/06/03 16:18:01;;;;;;;;;;;;;;;23.05;29.48;102068.72;10295994;28;19945;-72
2023/06/03 16:23:01;;;;;;;;;;;;;;;22.28;29.08;102071.00;10294361;28;19920;-72
2023/06/03 16:28:01;;;;;;;;;;;;;;;21.79;30.10;102067.81;10278982;28;20048;-72
2023/06/03 16:33:02;;;;;;;;;;;;;;;21.53;30.59;102071.91;10279483;28;19910;-72
2023/06/03 16:38:02;;;;;;;;;;;;;;;21.16;30.76;102060.31;10310768;28;20264;-72
2023/06/03 16:43:02;;;;;;;;;;;;;;;21.10;30.95;102067.63;10310507;28;20004;-72
2023/06/03 16:48:02;;;;;;;;;;;;;;;20.96;30.98;102052.41;10294431;28;19937;-71
2023/06/03 16:53:03;;;;;;;;;;;;;;;20.89;31.01;102054.44;10294122;28;19968;-72
2023/06/03 16:58:03;;;;;;;;;;;;;;;20.85;31.34;102056.84;10294100;28;19914;-71
2023/06/03 17:03:04;;;;;;;;;;;;;;;20.71;31.44;102058.16;10294229;28;19914;-72
2023/06/03 17:08:05;;;;;;;;;;;;;;;20.58;31.31;102055.59;10293541;28;19914;-72
2023/06/03 17:13:05;;;;;;;;;;;;;;;20.62;31.97;102052.13;10292290;28;19918;-71
2023/06/03 17:18:05;;;;;;;;;;;;;;;20.55;32.24;102047.81;10308001;28;20297;-72
2023/06/03 17:23:06;;;;;;;;;;;;;;;20.39;31.95;102049.31;10293027;28;20028;-72
2023/06/03 17:28:06;;;;;;;;;;;;;;;20.29;31.94;102051.78;10293410;28;19985;-72
2023/06/03 17:33:06;;;;;;;;;;;;;;;20.19;32.16;102053.16;10292673;28;20012;-72
2023/06/03 17:38:06;;;;;;;;;;;;;;;20.23;32.39;102058.22;10292962;28;20297;-72
2023/06/03 17:43:07;;;;;;;;;;;;;;;20.11;32.69;102050.78;10274692;28;20001;-72
2023/06/03 17:48:07;;;;;;;;;;;;;;;20.07;32.75;102055.06;10308052;28;20009;-72
2023/06/03 17:53:07;;;;;;;;;;;;;;;20.03;32.92;102048.34;10273915;28;19921;-71
2023/06/03 17:58:07;;;;;;;;;;;;;;;19.98;33.26;102050.97;10292575;28;19914;-72
2023/06/03 18:03:08;;;;;;;;;;;;;;;19.86;33.99;102053.66;10291132;28;20244;-72
2023/06/03 18:08:08;;;;;;;;;;;;;;;19.73;34.93;102051.91;10292462;28;19956;-72
2023/06/03 18:13:08;;;;;;;;;;;;;;;19.70;35.03;102054.28;10292669;28;19977;-71
2023/06/03 18:18:09;;;;;;;;;;;;;;;19.55;35.67;102051.88;10306878;28;19984;-72
2023/06/03 18:23:10;;;;;;;;;;;;;;;19.48;35.36;102059.34;10293098;28;20013;-72
2023/06/03 18:28:10;;;;;;;;;;;;;;;19.40;36.12;102067.88;10282964;28;20328;-72
2023/06/03 18:33:10;;;;;;;;;;;;;;;19.32;36.02;102068.22;10315479;28;20245;-72
2023/06/03 18:38:10;;;;;;;;;;;;;;;19.23;36.74;102073.97;10282382;28;19910;-72
2023/06/03 18:43:11;;;;;;;;;;;;;;;19.17;36.64;102074.88;10282104;28;19914;-72
2023/06/03 18:48:11;;;;;;;;;;;;;;;19.10;36.66;102074.13;10282610;28;19916;-71
2023/06/03 18:53:12;;;;;;;;;;;;;;;18.92;37.66;102074.94;10299111;28;19920;-72
2023/06/03 18:58:14;;;;;;;;;;;;;;;18.79;37.80;102080.50;10299009;28;19960;-72
2023/06/03 19:03:15;;;;;;;;;;;;;;;18.68;37.41;102075.72;10298152;28;19918;-72
2023/06/03 19:08:18;;;;;;;;;;;;;;;18.51;38.86;102080.91;10282253;28;19910;-72
2023/06/03 19:13:18;;;;;;;;;;;;;;;18.44;39.36;102089.19;10299496;28;19965;-71
2023/06/03 19:18:19;;;;;;;;;;;;;;;18.34;39.86;102081.41;10283262;28;20354;-72
2023/06/03 19:23:19;;;;;;;;;;;;;;;18.18;41.48;102087.44;10282412;28;19921;-71
2023/06/03 19:28:19;;;;;;;;;;;;;;;18.06;44.44;102103.75;10312841;28;20012;-72
2023/06/03 19:33:19;;;;;;;;;;;;;;;17.87;46.54;102100.03;10297845;28;19960;-72
2023/06/03 19:38:20;;;;;;;;;;;;;;;17.68;44.67;102098.16;10312424;28;20383;-72
2023/06/03 19:43:20;;;;;;;;;;;;;;;17.45;47.49;102112.31;10297613;28;19914;-72
2023/06/03 19:48:23;;;;;;;;;;;;;;;17.24;49.46;102115.31;10297574;28;19918;-72
2023/06/03 19:53:23;;;;;;;;;;;;;;;17.11;48.19;102114.28;10296592;28;20354;-72
2023/06/03 19:58:23;;;;;;;;;;;;;;;16.94;47.33;102113.88;10299812;28;19938;-71
2023/06/03 20:03:26;;;;;;;;;;;;;;;16.78;47.34;102129.81;10296690;28;20344;-72
2023/06/03 20:08:26;;;;;;;;;;;;;;;16.64;48.59;102138.00;10297317;28;19909;-72
2023/06/03 20:13:26;;;;;;;;;;;;;;;16.54;49.90;102136.72;10279149;28;19914;-72
2023/06/03 20:18:26;;;;;;;;;;;;;;;16.44;49.73;102148.06;10295780;28;20391;-72
2023/06/03 20:23:27;;;;;;;;;;;;;;;16.27;51.69;102142.09;10295347;28;20288;-72
2023/06/03 20:28:27;;;;;;;;;;;;;;;16.20;51.70;102155.72;10278630;28;19925;-72
2023/06/03 20:33:27;;;;;;;;;;;;;;;16.12;50.94;102150.47;10279369;28;19925;-71
2023/06/03 20:38:29;;;;;;;;;;;;;;;15.96;52.50;102161.72;10298058;28;19921;-72
2023/06/03 20:43:32;;;;;;;;;;;;;;;15.84;53.96;102163.34;10299785;28;20317;-72
2023/06/03 20:48:33;;;;;;;;;;;;;;;15.73;51.30;102162.00;10299480;28;19914;-72
2023/06/03 20:53:33;;;;;;;;;;;;;;;15.58;52.46;102170.31;10297019;28;19914;-72
2023/06/03 20:58:33;;;;;;;;;;;;;;;15.50;52.13;102165.81;10294577;28;19922;-74
2023/06/03 21:03:34;;;;;;;;;;;;;;;15.42;53.15;102176.06;10309916;28;20365;-74
2023/06/03 21:08:35;;;;;;;;;;;;;;;15.30;54.39;102175.75;10294331;28;19922;-72
2023/06/03 21:13:35;;;;;;;;;;;;;;;15.22;54.11;102175.88;10308510;28;20354;-72
2023/06/03 21:18:35;;;;;;;;;;;;;;;15.13;55.26;102177.09;10293087;28;19929;-72
2023/06/03 21:23:35;;;;;;;;;;;;;;;15.02;53.61;102181.19;10275333;28;20024;-72
2023/06/03 21:28:36;;;;;;;;;;;;;;;14.87;53.80;102186.72;10276539;28;19920;-72
2023/06/03 21:33:36;;;;;;;;;;;;;;;14.75;60.58;102186.38;10292827;28;19966;-71
2023/06/03 21:38:37;;;;;;;;;;;;;;;14.74;56.93;102197.47;10293789;28;20005;-72
2023/06/03 21:43:37;;;;;;;;;;;;;;;14.59;59.44;102192.91;10293483;28;20084;-72
2023/06/03 21:48:37;;;;;;;;;;;;;;;14.53;62.63;102190.97;10292274;28;19914;-72
2023/06/03 21:53:38;;;;;;;;;;;;;;;14.50;58.50;102199.50;10290998;28;19914;-72
2023/06/03 21:58:38;;;;;;;;;;;;;;;14.41;58.72;102211.53;10274539;28;19922;-72
2023/06/03 22:03:38;;;;;;;;;;;;;;;14.30;57.40;102201.13;10291925;28;20295;-72
2023/06/03 22:08:38;;;;;;;;;;;;;;;14.23;57.75;102198.31;10275588;28;20421;-73
2023/06/03 22:13:39;;;;;;;;;;;;;;;14.17;58.96;102204.53;10306737;28;20253;-73
2023/06/03 22:18:39;;;;;;;;;;;;;;;14.07;57.19;102199.38;10274772;28;20052;-73
2023/06/03 22:23:40;;;;;;;;;;;;;;;13.97;60.21;102206.97;10293985;28;19922;-73
2023/06/03 22:28:40;;;;;;;;;;;;;;;13.92;58.34;102207.53;10292371;28;19924;-72
2023/06/03 22:33:40;;;;;;;;;;;;;;;13.84;61.97;102206.78;10307532;28;19924;-72
2023/06/03 22:38:41;;;;;;;;;;;;;;;13.75;63.14;102205.19;10274451;28;19913;-72
2023/06/03 22:43:42;;;;;;;;;;;;;;;13.65;63.78;102209.00;10291116;28;20345;-72
2023/06/03 22:48:43;;;;;;;;;;;;;;;13.56;64.98;102212.88;10291271;28;19918;-72
2023/06/03 22:53:43;;;;;;;;;;;;;;;13.48;62.91;102210.22;10290448;28;19918;-72
2023/06/03 22:58:43;;;;;;;;;;;;;;;13.39;63.49;102208.59;10307278;28;20026;-72
2023/06/03 23:03:43;;;;;;;;;;;;;;;13.33;65.18;102212.88;10306509;28;19918;-72
2023/06/03 23:08:44;;;;;;;;;;;;;;;13.28;63.74;102215.34;10274060;28;19914;-72
2023/06/03 23:13:44;;;;;;;;;;;;;;;13.23;63.55;102217.72;10301035;28;19929;-72
2023/06/03 23:18:44;;;;;;;;;;;;;;;13.17;63.58;102219.28;10305944;28;19961;-72
2023/06/03 23:23:45;;;;;;;;;;;;;;;13.13;64.59;102223.41;10282633;28;20341;-72
2023/06/03 23:28:45;;;;;;;;;;;;;;;13.09;64.17;102223.97;10280420;28;19936;-72
2023/06/03 23:33:46;;;;;;;;;;;;;;;13.00;65.56;102226.72;10297531;28;20013;-72
2023/06/03 23:38:46;;;;;;;;;;;;;;;12.96;68.01;102217.25;10297595;28;20009;-72
2023/06/03 23:43:47;;;;;;;;;;;;;;;12.97;71.49;102216.22;10296848;28;20358;-72
2023/06/03 23:48:47;;;;;;;;;;;;;;;12.97;72.28;102218.94;10297364;28;19980;-72
2023/06/03 23:53:47;;;;;;;;;;;;;;;12.91;74.38;102208.78;10280067;28;20004;-72
2023/06/03 23:58:47;;;;;;;;;;;;;;;12.85;72.15;102216.81;10296748;28;19922;-72
